Time;durP1;ratioP1;P1;durP2;ratioP2;P2;SDS_P1;SDS_P2;PMS_P1;PMS_P2;Temp;Humidity;BMP_temperature;BMP_pressure;BME280_temperature;BME280_humidity;BME280_pressure;Samples;Min_cycle;Max_cycle;Signal;HPM_P1;HPM_P2
2023/03/01 00:02:17;;;;;;;14.13;9.43;;;;;;;;;;5042260;28;20217;-78
2023/03/01 00:04:42;;;;;;;17.57;10.83;;;;;;;;;;5031939;28;20214;-78
2023/03/01 00:07:07;;;;;;;18.67;10.63;;;;;;;;;;5062408;28;20181;-78
2023/03/01 00:09:32;;;;;;;15.90;9.73;;;;;;;;;;5059498;28;20202;-78
2023/03/01 00:11:58;;;;;;;11.80;7.30;;;;;;;;;;5032756;28;20202;-78
2023/03/01 00:14:23;;;;;;;17.87;10.07;;;;;;;;;;5012609;28;20226;-78
2023/03/01 00:16:48;;;;;;;15.23;9.33;;;;;;;;;;5018921;28;20298;-78
2023/03/01 00:19:15;;;;;;;17.10;10.00;;;;;;;;;;5003564;28;20178;-78
2023/03/01 00:21:40;;;;;;;15.30;10.30;;;;;;;;;;5019392;28;20238;-78
2023/03/01 00:24:06;;;;;;;15.53;8.03;;;;;;;;;;5003434;28;20182;-78
2023/03/01 00:26:32;;;;;;;13.23;8.83;;;;;;;;;;5004027;28;20202;-78
2023/03/01 00:28:57;;;;;;;15.33;10.73;;;;;;;;;;5000422;28;20189;-78
2023/03/01 00:31:24;;;;;;;16.17;11.20;;;;;;;;;;4996970;28;20216;-78
2023/03/01 00:33:52;;;;;;;17.97;9.63;;;;;;;;;;4995471;28;20187;-78
2023/03/01 00:36:17;;;;;;;14.73;9.70;;;;;;;;;;5002795;28;20191;-78
2023/03/01 00:38:43;;;;;;;16.63;9.30;;;;;;;;;;5014131;28;20167;-78
2023/03/01 00:41:11;;;;;;;15.40;9.23;;;;;;;;;;4996644;28;20214;-78
2023/03/01 00:43:37;;;;;;;13.20;8.90;;;;;;;;;;5004062;28;20182;-78
2023/03/01 00:46:07;;;;;;;16.57;10.83;;;;;;;;;;4996255;28;20191;-78
2023/03/01 00:48:32;;;;;;;16.53;11.13;;;;;;;;;;5023844;28;20255;-78
2023/03/01 00:51:04;;;;;;;14.97;10.17;;;;;;;;;;5003261;28;20368;-78
2023/03/01 00:53:29;;;;;;;16.60;10.23;;;;;;;;;;5009565;28;20266;-78
2023/03/01 00:55:56;;;;;;;17.30;10.53;;;;;;;;;;5012265;28;20305;-78
2023/03/01 00:58:21;;;;;;;16.97;11.00;;;;;;;;;;5007449;28;20178;-78
2023/03/01 01:00:47;;;;;;;14.27;9.93;;;;;;;;;;5015007;28;20176;-78
2023/03/01 01:03:12;;;;;;;16.63;10.53;;;;;;;;;;5025327;28;20262;-78
2023/03/01 01:05:37;;;;;;;13.83;9.57;;;;;;;;;;5002872;28;20184;-78
2023/03/01 01:08:02;;;;;;;16.93;10.10;;;;;;;;;;5009354;28;20187;-78
2023/03/01 01:10:28;;;;;;;14.53;10.10;;;;;;;;;;5011892;28;20207;-78
2023/03/01 01:12:53;;;;;;;16.17;10.30;;;;;;;;;;5005128;28;20207;-78
2023/03/01 01:15:18;;;;;;;13.63;9.90;;;;;;;;;;5001280;28;20223;-78
2023/03/01 01:17:43;;;;;;;13.27;9.43;;;;;;;;;;5004102;28;20333;-78
2023/03/01 01:20:09;;;;;;;13.40;10.20;;;;;;;;;;5003889;28;20167;-78
2023/03/01 01:22:34;;;;;;;7.67;4.13;;;;;;;;;;5011797;28;20186;-78
2023/03/01 01:25:00;;;;;;;20.43;9.70;;;;;;;;;;5003688;28;20179;-78
2023/03/01 01:27:25;;;;;;;16.97;10.67;;;;;;;;;;5011391;28;20216;-78
2023/03/01 01:29:52;;;;;;;16.10;10.40;;;;;;;;;;5022169;28;20245;-78
2023/03/01 01:32:18;;;;;;;15.93;9.80;;;;;;;;;;5025894;28;20172;-78
2023/03/01 01:34:43;;;;;;;20.70;9.90;;;;;;;;;;5020088;28;20218;-78
2023/03/01 01:37:08;;;;;;;14.27;10.40;;;;;;;;;;5003559;28;20172;-78
2023/03/01 01:39:34;;;;;;;13.10;8.37;;;;;;;;;;5023584;28;20252;-78
2023/03/01 01:42:01;;;;;;;15.10;9.60;;;;;;;;;;5000097;28;20198;-78
2023/03/01 01:44:27;;;;;;;13.43;8.33;;;;;;;;;;5006244;28;20227;-78
2023/03/01 01:46:55;;;;;;;16.20;8.73;;;;;;;;;;5027458;28;20200;-78
2023/03/01 01:49:25;;;;;;;16.43;10.60;;;;;;;;;;5024276;28;20183;-78
2023/03/01 01:51:53;;;;;;;15.17;8.73;;;;;;;;;;5008068;28;20183;-78
2023/03/01 01:54:20;;;;;;;17.13;10.23;;;;;;;;;;5019345;28;20169;-78
2023/03/01 01:56:50;;;;;;;19.83;10.50;;;;;;;;;;5002603;28;20203;-78
2023/03/01 01:59:16;;;;;;;17.03;10.47;;;;;;;;;;4998542;28;20183;-78
2023/03/01 02:01:42;;;;;;;17.43;10.50;;;;;;;;;;5002045;28;20270;-78
2023/03/01 02:04:07;;;;;;;15.60;9.30;;;;;;;;;;5004264;28;20183;-78
2023/03/01 02:06:44;;;;;;;16.93;10.90;;;;;;;;;;5009403;28;20173;-78
2023/03/01 02:09:14;;;;;;;17.37;10.63;;;;;;;;;;5007536;28;20183;-78
2023/03/01 02:11:40;;;;;;;9.23;5.13;;;;;;;;;;5008054;28;20234;-78
2023/03/01 02:14:06;;;;;;;12.77;9.40;;;;;;;;;;5006942;28;20263;-78
2023/03/01 02:16:31;;;;;;;17.73;10.07;;;;;;;;;;5021471;28;20210;-78
2023/03/01 02:18:56;;;;;;;15.70;9.27;;;;;;;;;;5022227;28;20173;-78
2023/03/01 02:21:34;;;;;;;16.27;10.80;;;;;;;;;;5022607;28;20268;-78
2023/03/01 02:24:05;;;;;;;12.33;7.37;;;;;;;;;;5026778;28;20188;-78
2023/03/01 02:26:37;;;;;;;19.80;10.73;;;;;;;;;;5035757;28;20182;-78
2023/03/01 02:29:02;;;;;;;14.63;10.17;;;;;;;;;;5027140;28;20242;-78
2023/03/01 02:31:43;;;;;;;18.23;11.50;;;;;;;;;;5020464;28;20289;-78
2023/03/01 02:34:10;;;;;;;18.20;11.23;;;;;;;;;;5029643;28;20260;-78
2023/03/01 02:36:37;;;;;;;17.03;11.53;;;;;;;;;;5026109;28;20202;-78
2023/03/01 02:39:05;;;;;;;18.03;11.30;;;;;;;;;;5023484;28;20320;-78
2023/03/01 02:41:35;;;;;;;17.83;10.67;;;;;;;;;;5025035;28;20190;-78
2023/03/01 02:44:02;;;;;;;17.77;12.00;;;;;;;;;;5026971;28;20179;-78
2023/03/01 02:46:29;;;;;;;16.17;11.27;;;;;;;;;;5027421;28;20183;-78
2023/03/01 02:48:55;;;;;;;18.70;11.90;;;;;;;;;;5024904;28;20178;-78
2023/03/01 02:51:47;;;;;;;21.03;12.93;;;;;;;;;;5046888;28;20252;-78
2023/03/01 02:54:35;;;;;;;19.03;10.33;;;;;;;;;;5025174;28;20215;-78
2023/03/01 02:57:01;;;;;;;21.43;11.70;;;;;;;;;;5022650;28;20187;-78
2023/03/01 02:59:28;;;;;;;18.77;11.53;;;;;;;;;;5020859;28;20200;-78
2023/03/01 03:01:54;;;;;;;15.03;10.23;;;;;;;;;;5046934;28;20198;-78
2023/03/01 03:04:20;;;;;;;17.73;12.97;;;;;;;;;;5026541;28;20180;-78
2023/03/01 03:06:46;;;;;;;17.80;10.70;;;;;;;;;;5020931;28;20174;-78
2023/03/01 03:09:12;;;;;;;19.40;11.47;;;;;;;;;;5025133;28;20213;-78
2023/03/01 03:11:39;;;;;;;16.33;10.43;;;;;;;;;;5024075;28;20206;-78
2023/03/01 03:14:04;;;;;;;18.70;11.33;;;;;;;;;;5016180;28;20207;-78
2023/03/01 03:16:30;;;;;;;19.17;12.10;;;;;;;;;;5028816;28;20214;-78
2023/03/01 03:19:04;;;;;;;22.07;11.20;;;;;;;;;;5043743;28;20303;-78
2023/03/01 03:21:31;;;;;;;24.50;12.70;;;;;;;;;;5019837;28;20205;-78
2023/03/01 03:23:57;;;;;;;20.50;12.23;;;;;;;;;;5025474;28;20228;-78
2023/03/01 03:26:22;;;;;;;19.90;12.67;;;;;;;;;;5039388;28;20187;-78
2023/03/01 03:28:47;;;;;;;18.10;10.73;;;;;;;;;;5039173;28;20178;-78
2023/03/01 03:31:12;;;;;;;15.17;8.93;;;;;;;;;;5027853;28;20237;-79
2023/03/01 03:33:38;;;;;;;19.50;13.30;;;;;;;;;;5020834;28;20175;-78
2023/03/01 03:36:04;;;;;;;20.80;11.63;;;;;;;;;;5039326;28;20167;-78
2023/03/01 03:38:29;;;;;;;17.60;10.20;;;;;;;;;;5020415;28;20218;-78
2023/03/01 03:41:04;;;;;;;19.57;11.30;;;;;;;;;;5024871;28;20178;-78
2023/03/01 03:43:31;;;;;;;19.00;10.47;;;;;;;;;;5019080;28;20229;-78
2023/03/01 03:45:57;;;;;;;19.27;11.33;;;;;;;;;;5029925;28;20185;-78
2023/03/01 03:48:22;;;;;;;14.13;7.83;;;;;;;;;;5042020;28;20174;-78
2023/03/01 03:50:49;;;;;;;18.23;11.50;;;;;;;;;;5029813;28;20205;-78
2023/03/01 03:53:14;;;;;;;18.80;12.73;;;;;;;;;;5021065;28;20207;-78
2023/03/01 03:55:40;;;;;;;15.83;9.83;;;;;;;;;;5039821;28;20178;-78
2023/03/01 03:58:06;;;;;;;17.67;9.60;;;;;;;;;;5024689;28;20171;-78
2023/03/01 04:00:32;;;;;;;19.97;10.23;;;;;;;;;;5022510;28;20178;-78
2023/03/01 04:02:58;;;;;;;19.50;12.27;;;;;;;;;;5029863;28;20175;-78
2023/03/01 04:05:23;;;;;;;24.07;13.37;;;;;;;;;;5016914;28;20186;-78
2023/03/01 04:07:48;;;;;;;24.00;14.37;;;;;;;;;;5016821;28;20261;-78
2023/03/01 04:10:15;;;;;;;20.27;12.33;;;;;;;;;;5018077;28;20211;-78
2023/03/01 04:12:43;;;;;;;20.23;13.33;;;;;;;;;;5044459;28;20257;-78
2023/03/01 04:15:14;;;;;;;14.60;8.70;;;;;;;;;;5042518;28;20259;-78
2023/03/01 04:17:39;;;;;;;18.83;12.67;;;;;;;;;;5023719;28;20179;-78
2023/03/01 04:20:05;;;;;;;21.83;13.60;;;;;;;;;;5026448;28;20273;-78
2023/03/01 04:22:31;;;;;;;20.93;13.23;;;;;;;;;;5021423;28;20179;-78
2023/03/01 04:24:57;;;;;;;24.33;14.00;;;;;;;;;;5029137;28;20182;-78
2023/03/01 04:27:22;;;;;;;19.77;11.80;;;;;;;;;;5027922;28;20178;-78
2023/03/01 04:29:47;;;;;;;19.53;13.07;;;;;;;;;;5037491;28;20213;-78
2023/03/01 04:32:15;;;;;;;21.00;13.53;;;;;;;;;;5035201;28;20184;-78
2023/03/01 04:34:41;;;;;;;21.80;12.00;;;;;;;;;;5042002;28;20182;-78
2023/03/01 04:37:06;;;;;;;20.33;12.87;;;;;;;;;;5025212;28;20178;-78
2023/03/01 04:39:32;;;;;;;18.53;12.87;;;;;;;;;;5041994;28;20185;-78
2023/03/01 04:41:57;;;;;;;17.20;10.57;;;;;;;;;;5027989;28;20191;-78
2023/03/01 04:44:22;;;;;;;19.77;11.87;;;;;;;;;;5030034;28;20178;-78
2023/03/01 04:46:49;;;;;;;16.47;8.50;;;;;;;;;;5045409;28;20171;-78
2023/03/01 04:49:15;;;;;;;19.40;11.77;;;;;;;;;;5026657;28;20175;-78
2023/03/01 04:51:41;;;;;;;24.00;13.27;;;;;;;;;;5021113;28;20202;-78
2023/03/01 04:54:08;;;;;;;23.20;13.97;;;;;;;;;;5036614;28;20198;-78
2023/03/01 04:56:34;;;;;;;13.77;7.07;;;;;;;;;;5023657;28;20490;-78
2023/03/01 04:59:00;;;;;;;21.27;12.27;;;;;;;;;;5037775;28;20175;-78
2023/03/01 05:01:25;;;;;;;21.03;11.97;;;;;;;;;;5014458;28;20187;-78
2023/03/01 05:03:51;;;;;;;19.53;11.77;;;;;;;;;;5023336;28;20453;-78
2023/03/01 05:06:17;;;;;;;17.33;11.33;;;;;;;;;;5023699;28;20177;-78
2023/03/01 05:08:43;;;;;;;22.40;14.80;;;;;;;;;;5043095;28;20187;-78
2023/03/01 05:11:08;;;;;;;19.53;12.20;;;;;;;;;;5017103;28;20268;-78
2023/03/01 05:13:35;;;;;;;22.23;13.77;;;;;;;;;;5030153;28;20214;-78
2023/03/01 05:16:01;;;;;;;22.20;13.37;;;;;;;;;;5003012;28;20283;-78
2023/03/01 05:18:27;;;;;;;23.90;12.73;;;;;;;;;;5006341;28;20271;-78
2023/03/01 05:20:57;;;;;;;22.27;13.07;;;;;;;;;;5002983;28;20187;-78
2023/03/01 05:23:23;;;;;;;20.10;13.17;;;;;;;;;;5001204;28;20282;-78
2023/03/01 05:25:49;;;;;;;21.33;13.97;;;;;;;;;;5017904;28;20248;-78
2023/03/01 05:28:14;;;;;;;24.03;13.40;;;;;;;;;;5003751;28;20268;-78
2023/03/01 05:30:39;;;;;;;23.10;11.93;;;;;;;;;;5021153;28;20203;-78
2023/03/01 05:33:04;;;;;;;13.90;9.27;;;;;;;;;;5006242;28;20209;-78
2023/03/01 05:35:32;;;;;;;17.90;10.10;;;;;;;;;;5005575;28;20202;-78
2023/03/01 05:37:57;;;;;;;22.60;12.43;;;;;;;;;;5006590;28;20186;-78
2023/03/01 05:40:23;;;;;;;20.57;13.43;;;;;;;;;;5017040;28;20184;-78
2023/03/01 05:42:51;;;;;;;20.70;11.10;;;;;;;;;;5003770;28;20315;-78
2023/03/01 05:45:17;;;;;;;22.43;13.37;;;;;;;;;;5020681;28;20269;-78
2023/03/01 05:47:44;;;;;;;19.60;12.53;;;;;;;;;;5010399;28;20184;-79
2023/03/01 05:50:20;;;;;;;21.97;12.13;;;;;;;;;;5003942;28;20237;-78
2023/03/01 05:52:49;;;;;;;18.77;12.50;;;;;;;;;;5027651;28;20171;-78
2023/03/01 05:55:15;;;;;;;19.80;11.57;;;;;;;;;;4999796;28;20177;-78
2023/03/01 05:57:41;;;;;;;10.97;7.27;;;;;;;;;;5026558;28;20183;-78
2023/03/01 06:00:06;;;;;;;9.53;6.60;;;;;;;;;;5007532;28;20179;-78
2023/03/01 06:02:32;;;;;;;20.27;12.93;;;;;;;;;;5023080;28;20195;-79
2023/03/01 06:04:57;;;;;;;18.83;11.17;;;;;;;;;;5001086;28;20175;-78
2023/03/01 06:07:23;;;;;;;22.87;13.10;;;;;;;;;;5024134;28;20175;-79
2023/03/01 06:09:48;;;;;;;23.23;13.77;;;;;;;;;;5027432;28;20190;-78
2023/03/01 06:12:13;;;;;;;22.37;15.40;;;;;;;;;;5008072;28;20206;-79
2023/03/01 06:14:39;;;;;;;18.77;14.30;;;;;;;;;;5004607;28;20226;-78
2023/03/01 06:17:04;;;;;;;20.67;14.67;;;;;;;;;;5005395;28;20177;-78
2023/03/01 06:19:29;;;;;;;23.43;13.57;;;;;;;;;;5006638;28;20199;-78
2023/03/01 06:21:54;;;;;;;22.27;13.97;;;;;;;;;;5009017;28;20206;-79
2023/03/01 06:24:20;;;;;;;17.13;10.33;;;;;;;;;;5003199;28;20318;-79
2023/03/01 06:26:45;;;;;;;21.03;11.90;;;;;;;;;;5023660;28;20172;-78
2023/03/01 06:29:10;;;;;;;14.50;9.00;;;;;;;;;;5007207;28;20176;-79
2023/03/01 06:31:35;;;;;;;20.40;12.47;;;;;;;;;;5006385;28;20203;-78
2023/03/01 06:34:00;;;;;;;18.17;10.10;;;;;;;;;;5008251;28;20189;-78
2023/03/01 06:36:26;;;;;;;21.00;13.60;;;;;;;;;;5005839;28;20231;-78
2023/03/01 06:38:51;;;;;;;19.37;12.10;;;;;;;;;;5005145;28;20173;-78
2023/03/01 06:41:16;;;;;;;25.27;15.40;;;;;;;;;;5008315;28;20211;-78
2023/03/01 06:43:41;;;;;;;17.70;12.10;;;;;;;;;;5005128;28;20175;-79
2023/03/01 06:46:07;;;;;;;22.40;14.47;;;;;;;;;;5022061;28;20203;-79
2023/03/01 06:48:33;;;;;;;28.53;18.13;;;;;;;;;;5007078;28;20213;-78
2023/03/01 06:51:01;;;;;;;23.63;15.43;;;;;;;;;;5026908;28;20202;-79
2023/03/01 06:53:27;;;;;;;21.70;13.93;;;;;;;;;;5006590;28;20222;-79
2023/03/01 06:55:55;;;;;;;24.90;16.40;;;;;;;;;;5006295;28;20210;-79
2023/03/01 06:58:21;;;;;;;11.70;8.03;;;;;;;;;;5019358;28;20188;-78
2023/03/01 07:00:49;;;;;;;26.33;14.43;;;;;;;;;;5007775;28;20217;-79
2023/03/01 07:03:14;;;;;;;22.47;15.07;;;;;;;;;;5002992;28;20208;-79
2023/03/01 07:05:39;;;;;;;27.00;14.43;;;;;;;;;;5004589;28;20202;-78
2023/03/01 07:08:05;;;;;;;23.27;15.63;;;;;;;;;;5004568;28;20289;-78
2023/03/01 07:10:30;;;;;;;22.27;13.40;;;;;;;;;;5001567;28;20244;-78
2023/03/01 07:12:59;;;;;;;22.57;14.20;;;;;;;;;;5009077;28;20260;-78
2023/03/01 07:15:25;;;;;;;20.33;13.00;;;;;;;;;;5006120;28;20248;-79
2023/03/01 07:17:50;;;;;;;23.17;14.77;;;;;;;;;;4996905;28;20188;-79
2023/03/01 07:20:16;;;;;;;23.73;14.20;;;;;;;;;;5002652;28;20314;-79
2023/03/01 07:22:42;;;;;;;20.03;13.70;;;;;;;;;;4998960;28;20182;-79
2023/03/01 07:25:07;;;;;;;11.10;6.27;;;;;;;;;;5019431;28;20235;-78
2023/03/01 07:27:33;;;;;;;15.93;9.90;;;;;;;;;;5003970;28;20182;-79
2023/03/01 07:29:58;;;;;;;20.13;13.97;;;;;;;;;;4999228;28;20237;-78
2023/03/01 07:32:23;;;;;;;20.60;13.20;;;;;;;;;;5008857;28;20187;-78
2023/03/01 07:34:48;;;;;;;27.33;13.10;;;;;;;;;;5002575;28;20184;-79
2023/03/01 07:37:13;;;;;;;23.57;13.50;;;;;;;;;;5008528;28;20183;-79
2023/03/01 07:39:39;;;;;;;22.13;12.93;;;;;;;;;;4999467;28;20210;-78
2023/03/01 07:42:04;;;;;;;22.50;14.30;;;;;;;;;;5007764;28;20184;-79
2023/03/01 07:44:29;;;;;;;17.10;9.37;;;;;;;;;;5000335;28;20284;-78
2023/03/01 07:46:56;;;;;;;15.97;10.60;;;;;;;;;;5001516;28;20181;-78
2023/03/01 07:49:21;;;;;;;28.03;13.70;;;;;;;;;;5004322;28;20251;-79
2023/03/01 07:51:46;;;;;;;23.07;10.50;;;;;;;;;;5016732;28;20288;-79
2023/03/01 07:54:12;;;;;;;26.10;13.23;;;;;;;;;;4996656;28;20180;-79
2023/03/01 07:56:37;;;;;;;18.17;11.23;;;;;;;;;;4996827;28;20221;-79
2023/03/01 07:59:02;;;;;;;27.63;17.27;;;;;;;;;;5022766;28;20338;-79
2023/03/01 08:01:27;;;;;;;27.33;15.10;;;;;;;;;;5004481;28;20227;-79
2023/03/01 08:03:53;;;;;;;20.37;12.50;;;;;;;;;;5012281;28;20187;-80
2023/03/01 08:06:18;;;;;;;24.77;13.33;;;;;;;;;;4996461;28;20180;-80
2023/03/01 08:08:43;;;;;;;22.50;14.20;;;;;;;;;;5003085;28;20228;-80
2023/03/01 08:11:10;;;;;;;12.67;8.20;;;;;;;;;;5009358;28;20230;-80
2023/03/01 08:13:35;;;;;;;24.90;15.03;;;;;;;;;;5003863;28;20208;-81
2023/03/01 08:16:05;;;;;;;17.33;8.67;;;;;;;;;;5000126;28;20306;-81
2023/03/01 08:18:30;;;;;;;21.80;11.97;;;;;;;;;;5000019;28;20184;-81
2023/03/01 08:20:55;;;;;;;21.33;12.13;;;;;;;;;;5005660;28;20184;-80
2023/03/01 08:23:21;;;;;;;25.77;15.97;;;;;;;;;;5003226;28;20183;-80
2023/03/01 08:25:46;;;;;;;27.20;16.23;;;;;;;;;;5001651;28;20270;-79
2023/03/01 08:28:11;;;;;;;24.03;15.17;;;;;;;;;;5001284;28;20181;-80
2023/03/01 08:30:36;;;;;;;24.93;16.63;;;;;;;;;;4997590;28;20212;-80
2023/03/01 08:33:02;;;;;;;23.30;15.07;;;;;;;;;;5002370;28;20185;-80
2023/03/01 08:35:27;;;;;;;19.87;12.00;;;;;;;;;;5009190;28;20177;-81
2023/03/01 08:37:52;;;;;;;26.03;16.27;;;;;;;;;;5008123;28;20223;-81
2023/03/01 08:40:18;;;;;;;30.80;16.47;;;;;;;;;;4999253;28;20191;-81
2023/03/01 08:42:43;;;;;;;20.00;11.37;;;;;;;;;;5009400;28;20181;-81
2023/03/01 08:45:09;;;;;;;22.27;11.83;;;;;;;;;;5003911;28;20213;-81
2023/03/01 08:47:35;;;;;;;25.23;13.73;;;;;;;;;;5004225;28;20189;-81
2023/03/01 08:50:00;;;;;;;16.90;8.83;;;;;;;;;;5003754;28;20259;-81
2023/03/01 08:52:26;;;;;;;40.07;18.03;;;;;;;;;;5004603;28;20185;-80
2023/03/01 08:54:52;;;;;;;15.57;8.83;;;;;;;;;;5010058;28;20180;-81
2023/03/01 08:57:17;;;;;;;25.63;16.07;;;;;;;;;;4999460;28;20395;-81
2023/03/01 08:59:42;;;;;;;14.13;6.87;;;;;;;;;;4996571;28;20183;-81
2023/03/01 09:02:16;;;;;;;25.77;17.33;;;;;;;;;;5008118;28;20178;-80
2023/03/01 09:04:41;;;;;;;28.00;16.73;;;;;;;;;;5006634;28;20183;-81
2023/03/01 09:07:07;;;;;;;24.30;14.93;;;;;;;;;;5002849;28;20178;-80
2023/03/01 09:09:32;;;;;;;28.03;17.20;;;;;;;;;;5004008;28;20181;-80
2023/03/01 09:11:57;;;;;;;24.00;15.97;;;;;;;;;;5002026;28;20225;-81
2023/03/01 09:14:22;;;;;;;21.90;13.07;;;;;;;;;;5012775;28;20247;-81
2023/03/01 09:16:48;;;;;;;28.33;17.13;;;;;;;;;;5020814;28;20168;-81
2023/03/01 09:19:13;;;;;;;25.67;16.73;;;;;;;;;;5028333;28;20181;-82
2023/03/01 09:21:38;;;;;;;25.37;15.93;;;;;;;;;;5024030;28;20215;-82
2023/03/01 09:24:04;;;;;;;27.57;17.03;;;;;;;;;;5025407;28;20270;-81
2023/03/01 09:26:29;;;;;;;23.93;15.87;;;;;;;;;;5029993;28;20185;-81
2023/03/01 09:28:55;;;;;;;22.17;13.07;;;;;;;;;;5026548;28;20188;-82
2023/03/01 09:31:21;;;;;;;27.13;17.90;;;;;;;;;;5024754;28;20280;-81
2023/03/01 09:33:47;;;;;;;17.30;12.50;;;;;;;;;;5031233;28;20184;-81
2023/03/01 09:36:14;;;;;;;26.93;16.53;;;;;;;;;;5021597;28;20212;-81
2023/03/01 09:38:39;;;;;;;25.03;15.83;;;;;;;;;;5029905;28;20181;-81
2023/03/01 09:41:17;;;;;;;30.93;13.63;;;;;;;;;;5023496;28;20189;-81
2023/03/01 09:43:42;;;;;;;24.37;14.87;;;;;;;;;;5022251;28;20268;-81
2023/03/01 09:46:13;;;;;;;18.30;10.43;;;;;;;;;;5023091;28;20271;-81
2023/03/01 09:48:42;;;;;;;17.23;8.60;;;;;;;;;;5025033;28;20184;-80
2023/03/01 09:51:12;;;;;;;17.17;9.20;;;;;;;;;;5031790;28;20208;-80
2023/03/01 09:53:37;;;;;;;11.43;8.07;;;;;;;;;;5022876;28;20196;-80
2023/03/01 09:56:13;;;;;;;21.10;13.70;;;;;;;;;;5027692;28;20269;-80
2023/03/01 09:59:04;;;;;;;29.20;17.70;;;;;;;;;;5043541;28;20177;-80
2023/03/01 10:01:45;;;;;;;26.17;15.40;;;;;;;;;;5019007;28;20182;-79
2023/03/01 10:04:29;;;;;;;12.80;8.53;;;;;;;;;;5025674;28;20272;-79
2023/03/01 10:07:14;;;;;;;21.87;14.17;;;;;;;;;;5036638;28;20214;-79
2023/03/01 10:09:41;;;;;;;6.70;4.77;;;;;;;;;;5024753;28;20185;-79
2023/03/01 10:12:33;;;;;;;26.17;18.27;;;;;;;;;;5024325;28;20225;-79
2023/03/01 10:15:12;;;;;;;17.03;8.63;;;;;;;;;;5039709;28;20222;-80
2023/03/01 10:17:50;;;;;;;12.33;8.60;;;;;;;;;;5027786;28;20190;-80
2023/03/01 10:20:26;;;;;;;12.23;7.53;;;;;;;;;;5028418;28;20182;-80
2023/03/01 10:22:52;;;;;;;22.57;13.30;;;;;;;;;;5044001;28;20201;-80
2023/03/01 10:25:30;;;;;;;15.97;9.23;;;;;;;;;;5027257;28;20222;-81
2023/03/01 10:28:01;;;;;;;19.73;11.97;;;;;;;;;;5018761;28;20185;-81
2023/03/01 10:30:34;;;;;;;14.40;9.60;;;;;;;;;;5022592;28;20210;-81
2023/03/01 10:32:59;;;;;;;26.87;16.53;;;;;;;;;;5028069;28;20197;-81
2023/03/01 10:35:26;;;;;;;27.00;15.47;;;;;;;;;;5029584;28;20174;-81
2023/03/01 10:37:58;;;;;;;20.50;13.67;;;;;;;;;;5023555;28;20166;-81
2023/03/01 10:40:23;;;;;;;24.13;15.27;;;;;;;;;;5025545;28;20201;-81
2023/03/01 10:42:49;;;;;;;20.30;12.97;;;;;;;;;;5043168;28;20182;-81
2023/03/01 10:45:15;;;;;;;25.23;15.03;;;;;;;;;;5023586;28;20325;-81
2023/03/01 10:47:40;;;;;;;19.97;13.40;;;;;;;;;;5021893;28;20186;-80
2023/03/01 10:50:06;;;;;;;24.17;14.60;;;;;;;;;;5030700;28;20198;-80
2023/03/01 10:52:36;;;;;;;21.43;13.23;;;;;;;;;;5026055;28;20186;-80
2023/03/01 10:55:16;;;;;;;18.23;13.10;;;;;;;;;;5028704;28;20166;-80
2023/03/01 10:57:42;;;;;;;23.13;14.37;;;;;;;;;;5023141;28;20221;-80
2023/03/01 11:00:26;;;;;;;13.17;9.73;;;;;;;;;;5043138;28;20175;-80
2023/03/01 11:03:12;;;;;;;17.73;11.97;;;;;;;;;;5047349;28;20186;-79
2023/03/01 11:05:49;;;;;;;20.33;12.93;;;;;;;;;;5033492;28;20192;-79
2023/03/01 11:08:14;;;;;;;27.77;14.23;;;;;;;;;;5025998;28;20209;-79
2023/03/01 11:10:39;;;;;;;11.27;7.77;;;;;;;;;;5045952;28;20205;-79
2023/03/01 11:13:19;;;;;;;20.77;15.50;;;;;;;;;;5026519;28;20255;-78
2023/03/01 11:16:01;;;;;;;11.43;6.10;;;;;;;;;;5037108;28;20222;-79
2023/03/01 11:18:28;;;;;;;17.20;11.60;;;;;;;;;;5024071;28;20201;-79
2023/03/01 11:20:54;;;;;;;11.93;7.30;;;;;;;;;;5027418;28;20189;-79
2023/03/01 11:23:21;;;;;;;22.73;15.03;;;;;;;;;;5019584;28;20211;-79
2023/03/01 11:25:49;;;;;;;20.47;12.47;;;;;;;;;;5026057;28;20190;-79
2023/03/01 11:28:16;;;;;;;20.60;12.30;;;;;;;;;;5028229;28;20202;-79
2023/03/01 11:30:49;;;;;;;22.87;14.83;;;;;;;;;;5020169;28;20578;-78
2023/03/01 11:33:21;;;;;;;17.20;9.67;;;;;;;;;;5048436;28;20268;-79
2023/03/01 11:35:50;;;;;;;25.97;12.03;;;;;;;;;;5015714;28;20183;-79
2023/03/01 11:38:18;;;;;;;19.50;14.07;;;;;;;;;;5041737;28;20174;-78
2023/03/01 11:40:45;;;;;;;15.73;9.83;;;;;;;;;;5048868;28;20242;-79
2023/03/01 11:43:16;;;;;;;22.13;14.07;;;;;;;;;;5021578;28;20184;-79
2023/03/01 11:46:01;;;;;;;21.57;14.67;;;;;;;;;;5024407;28;20190;-79
2023/03/01 11:48:29;;;;;;;12.70;9.10;;;;;;;;;;5018942;28;20183;-79
2023/03/01 11:50:56;;;;;;;10.77;6.30;;;;;;;;;;5043310;28;20212;-78
2023/03/01 11:53:36;;;;;;;13.20;10.33;;;;;;;;;;5016876;28;20216;-79
2023/03/01 11:56:04;;;;;;;10.33;8.03;;;;;;;;;;5027736;28;20171;-79
2023/03/01 11:58:41;;;;;;;20.27;12.93;;;;;;;;;;5049418;28;20185;-79
2023/03/01 12:01:13;;;;;;;23.30;14.90;;;;;;;;;;5046915;28;20180;-79
2023/03/01 12:03:38;;;;;;;25.30;14.23;;;;;;;;;;5023444;28;20193;-79
2023/03/01 12:06:12;;;;;;;14.03;9.30;;;;;;;;;;5026918;28;20185;-79
2023/03/01 12:08:53;;;;;;;15.80;11.77;;;;;;;;;;5025405;28;20213;-79
2023/03/01 12:11:40;;;;;;;16.87;11.63;;;;;;;;;;5018026;28;20212;-79
2023/03/01 12:14:06;;;;;;;12.43;7.23;;;;;;;;;;5042845;28;20174;-78
2023/03/01 12:16:37;;;;;;;24.03;15.10;;;;;;;;;;5025988;28;20260;-79
2023/03/01 12:19:05;;;;;;;12.63;8.77;;;;;;;;;;5024280;28;20166;-79
2023/03/01 12:21:41;;;;;;;12.43;9.80;;;;;;;;;;5026193;28;20187;-79
2023/03/01 12:24:25;;;;;;;21.43;14.33;;;;;;;;;;5039123;28;20184;-79
2023/03/01 12:26:50;;;;;;;19.30;11.37;;;;;;;;;;5026624;28;20184;-79
2023/03/01 12:29:34;;;;;;;17.90;11.73;;;;;;;;;;5020452;28;20187;-78
2023/03/01 12:32:22;;;;;;;24.10;15.00;;;;;;;;;;5017547;28;20304;-79
2023/03/01 12:34:58;;;;;;;8.80;6.67;;;;;;;;;;5019522;28;20184;-79
2023/03/01 12:37:36;;;;;;;12.97;8.83;;;;;;;;;;5023882;28;20210;-79
2023/03/01 12:40:03;;;;;;;19.77;12.03;;;;;;;;;;5019619;28;20185;-79
2023/03/01 12:42:51;;;;;;;17.97;11.53;;;;;;;;;;5019875;28;20273;-79
2023/03/01 12:45:27;;;;;;;16.27;11.10;;;;;;;;;;5028283;28;20186;-79
2023/03/01 12:48:11;;;;;;;18.43;11.47;;;;;;;;;;5029359;28;20180;-80
2023/03/01 12:50:40;;;;;;;17.30;11.93;;;;;;;;;;5030960;28;20205;-79
2023/03/01 12:53:05;;;;;;;23.43;15.30;;;;;;;;;;5028077;28;20181;-79
2023/03/01 12:55:38;;;;;;;15.70;10.43;;;;;;;;;;5030078;28;20181;-79
2023/03/01 12:58:24;;;;;;;21.57;14.30;;;;;;;;;;5021460;28;20175;-80
2023/03/01 13:00:49;;;;;;;21.27;12.43;;;;;;;;;;5028181;28;20175;-80
2023/03/01 13:03:33;;;;;;;22.17;14.30;;;;;;;;;;5021313;28;20190;-80
2023/03/01 13:06:15;;;;;;;16.90;12.10;;;;;;;;;;5037904;28;20240;-79
2023/03/01 13:08:49;;;;;;;19.33;14.60;;;;;;;;;;5040860;28;20188;-79
2023/03/01 13:11:19;;;;;;;22.83;14.77;;;;;;;;;;5047660;28;20205;-80
2023/03/01 13:13:46;;;;;;;22.93;14.90;;;;;;;;;;5027108;28;20197;-80
2023/03/01 13:16:29;;;;;;;20.33;14.70;;;;;;;;;;5015068;28;20232;-80
2023/03/01 13:19:07;;;;;;;17.40;12.57;;;;;;;;;;5008026;28;20190;-80
2023/03/01 13:21:32;;;;;;;11.40;7.67;;;;;;;;;;5008622;28;20239;-80
2023/03/01 13:23:57;;;;;;;19.30;11.53;;;;;;;;;;5006196;28;20180;-80
2023/03/01 13:26:23;;;;;;;20.40;13.03;;;;;;;;;;5006111;28;20188;-80
2023/03/01 13:28:49;;;;;;;15.37;10.87;;;;;;;;;;5003073;28;20174;-80
2023/03/01 13:31:15;;;;;;;13.47;7.87;;;;;;;;;;5005514;28;20224;-80
2023/03/01 13:33:40;;;;;;;20.40;14.30;;;;;;;;;;5029281;28;20265;-80
2023/03/01 13:36:08;;;;;;;18.60;12.30;;;;;;;;;;5005181;28;20182;-80
2023/03/01 13:38:45;;;;;;;18.47;14.37;;;;;;;;;;5032122;28;20223;-80
2023/03/01 13:41:11;;;;;;;17.97;13.07;;;;;;;;;;5007779;28;20234;-80
2023/03/01 13:43:38;;;;;;;22.67;14.07;;;;;;;;;;5002838;28;20195;-80
2023/03/01 13:46:29;;;;;;;21.13;13.97;;;;;;;;;;5008458;28;20342;-80
2023/03/01 13:48:56;;;;;;;18.00;13.17;;;;;;;;;;4995511;28;20256;-80
2023/03/01 13:51:24;;;;;;;20.50;14.90;;;;;;;;;;5025023;28;20200;-80
2023/03/01 13:53:49;;;;;;;19.20;11.33;;;;;;;;;;5010004;28;20195;-80
2023/03/01 13:56:25;;;;;;;19.53;11.70;;;;;;;;;;5003554;28;20194;-80
2023/03/01 13:58:58;;;;;;;21.10;11.53;;;;;;;;;;5011199;28;20185;-80
2023/03/01 14:01:30;;;;;;;14.03;11.57;;;;;;;;;;5002294;28;20232;-80
2023/03/01 14:03:55;;;;;;;18.10;11.77;;;;;;;;;;5003829;28;20203;-81
2023/03/01 14:06:23;;;;;;;21.60;14.17;;;;;;;;;;5005390;28;20180;-80
2023/03/01 14:08:49;;;;;;;22.53;15.90;;;;;;;;;;5000913;28;20190;-80
2023/03/01 14:11:26;;;;;;;20.20;14.90;;;;;;;;;;5007759;28;20226;-80
2023/03/01 14:14:18;;;;;;;16.73;12.00;;;;;;;;;;5010577;28;20193;-80
2023/03/01 14:17:01;;;;;;;28.23;13.50;;;;;;;;;;5024520;28;20194;-80
2023/03/01 14:19:28;;;;;;;21.03;15.03;;;;;;;;;;5025624;28;20182;-80
2023/03/01 14:22:03;;;;;;;20.33;13.50;;;;;;;;;;5021597;28;20176;-81
2023/03/01 14:24:30;;;;;;;18.83;14.30;;;;;;;;;;5029096;28;20193;-81
2023/03/01 14:26:55;;;;;;;21.63;15.43;;;;;;;;;;5023457;28;20205;-81
2023/03/01 14:29:24;;;;;;;21.37;11.37;;;;;;;;;;5035697;28;20204;-80